sensor_id;sensor_type;location;lat;lon;timestamp;P1;durP1;ratioP1;P2;durP2;ratioP2
10082;SDS011;5080;48.528;8.078;2024-03-22T00:02:13;12.00;;;11.40;;
10082;SDS011;5080;48.528;8.078;2024-03-22T00:04:40;12.43;;;12.02;;
10082;SDS011;5080;48.528;8.078;2024-03-22T00:07:06;12.52;;;12.10;;
10082;SDS011;5080;48.528;8.078;2024-03-22T00:09:33;11.70;;;11.20;;
10082;SDS011;5080;48.528;8.078;2024-03-22T00:11:58;11.75;;;11.35;;
10082;SDS011;5080;48.528;8.078;2024-03-22T00:14:25;11.85;;;11.45;;
10082;SDS011;5080;48.528;8.078;2024-03-22T00:16:52;12.55;;;12.00;;
10082;SDS011;5080;48.528;8.078;2024-03-22T00:19:19;12.20;;;11.70;;
10082;SDS011;5080;48.528;8.078;2024-03-22T00:21:45;12.23;;;11.82;;
10082;SDS011;5080;48.528;8.078;2024-03-22T00:24:11;11.57;;;11.18;;
10082;SDS011;5080;48.528;8.078;2024-03-22T00:26:37;12.10;;;11.70;;
10082;SDS011;5080;48.528;8.078;2024-03-22T00:29:04;11.60;;;11.20;;
10082;SDS011;5080;48.528;8.078;2024-03-22T00:31:30;12.48;;;11.98;;
10082;SDS011;5080;48.528;8.078;2024-03-22T00:33:58;14.35;;;13.75;;
10082;SDS011;5080;48.528;8.078;2024-03-22T00:36:24;12.73;;;12.23;;
10082;SDS011;5080;48.528;8.078;2024-03-22T00:38:50;12.88;;;12.48;;
10082;SDS011;5080;48.528;8.078;2024-03-22T00:41:16;12.77;;;12.38;;
10082;SDS011;5080;48.528;8.078;2024-03-22T00:43:43;12.43;;;12.02;;
10082;SDS011;5080;48.528;8.078;2024-03-22T00:46:08;13.68;;;13.18;;
10082;SDS011;5080;48.528;8.078;2024-03-22T00:48:35;13.80;;;13.30;;
10082;SDS011;5080;48.528;8.078;2024-03-22T00:51:02;14.05;;;13.52;;
10082;SDS011;5080;48.528;8.078;2024-03-22T00:53:29;14.50;;;14.00;;
10082;SDS011;5080;48.528;8.078;2024-03-22T00:55:55;14.55;;;14.00;;
10082;SDS011;5080;48.528;8.078;2024-03-22T00:58:24;15.68;;;15.07;;
10082;SDS011;5080;48.528;8.078;2024-03-22T01:00:50;14.90;;;14.30;;
10082;SDS011;5080;48.528;8.078;2024-03-22T01:03:17;14.50;;;14.00;;
10082;SDS011;5080;48.528;8.078;2024-03-22T01:05:44;14.43;;;13.93;;
10082;SDS011;5080;48.528;8.078;2024-03-22T01:08:12;14.18;;;13.68;;
10082;SDS011;5080;48.528;8.078;2024-03-22T01:10:38;14.57;;;14.07;;
10082;SDS011;5080;48.528;8.078;2024-03-22T01:13:05;14.80;;;14.30;;
10082;SDS011;5080;48.528;8.078;2024-03-22T01:15:31;13.85;;;13.35;;
10082;SDS011;5080;48.528;8.078;2024-03-22T01:17:58;13.90;;;13.40;;
10082;SDS011;5080;48.528;8.078;2024-03-22T01:20:25;15.73;;;15.13;;
10082;SDS011;5080;48.528;8.078;2024-03-22T01:22:51;15.10;;;14.60;;
10082;SDS011;5080;48.528;8.078;2024-03-22T01:25:19;14.10;;;13.60;;
10082;SDS011;5080;48.528;8.078;2024-03-22T01:27:44;14.48;;;13.98;;
10082;SDS011;5080;48.528;8.078;2024-03-22T01:30:11;14.18;;;13.68;;
10082;SDS011;5080;48.528;8.078;2024-03-22T01:32:37;14.93;;;14.43;;
10082;SDS011;5080;48.528;8.078;2024-03-22T01:35:04;13.83;;;13.27;;
10082;SDS011;5080;48.528;8.078;2024-03-22T01:37:30;14.15;;;13.65;;
10082;SDS011;5080;48.528;8.078;2024-03-22T01:39:57;14.02;;;13.52;;
10082;SDS011;5080;48.528;8.078;2024-03-22T01:42:24;15.50;;;14.90;;
10082;SDS011;5080;48.528;8.078;2024-03-22T01:44:51;14.75;;;14.25;;
10082;SDS011;5080;48.528;8.078;2024-03-22T01:47:16;14.70;;;14.20;;
10082;SDS011;5080;48.528;8.078;2024-03-22T01:49:45;16.48;;;15.88;;
10082;SDS011;5080;48.528;8.078;2024-03-22T01:52:12;15.50;;;14.98;;
10082;SDS011;5080;48.528;8.078;2024-03-22T01:54:40;14.57;;;14.07;;
10082;SDS011;5080;48.528;8.078;2024-03-22T01:57:06;14.63;;;14.13;;
10082;SDS011;5080;48.528;8.078;2024-03-22T01:59:35;15.30;;;14.77;;
10082;SDS011;5080;48.528;8.078;2024-03-22T02:02:01;15.60;;;15.00;;
10082;SDS011;5080;48.528;8.078;2024-03-22T02:04:28;14.25;;;13.75;;
10082;SDS011;5080;48.528;8.078;2024-03-22T02:06:54;17.27;;;16.63;;
10082;SDS011;5080;48.528;8.078;2024-03-22T02:09:21;13.63;;;13.10;;
10082;SDS011;5080;48.528;8.078;2024-03-22T02:11:46;13.50;;;13.00;;
10082;SDS011;5080;48.528;8.078;2024-03-22T02:14:14;13.98;;;13.48;;
10082;SDS011;5080;48.528;8.078;2024-03-22T02:16:41;14.35;;;13.85;;
10082;SDS011;5080;48.528;8.078;2024-03-22T02:19:08;15.10;;;14.52;;
10082;SDS011;5080;48.528;8.078;2024-03-22T02:21:34;15.73;;;15.15;;
10082;SDS011;5080;48.528;8.078;2024-03-22T02:24:02;15.30;;;14.80;;
10082;SDS011;5080;48.528;8.078;2024-03-22T02:26:29;14.10;;;13.60;;
10082;SDS011;5080;48.528;8.078;2024-03-22T02:28:56;13.98;;;13.48;;
10082;SDS011;5080;48.528;8.078;2024-03-22T02:31:22;14.68;;;14.15;;
10082;SDS011;5080;48.528;8.078;2024-03-22T02:33:52;14.30;;;13.80;;
10082;SDS011;5080;48.528;8.078;2024-03-22T02:36:17;15.38;;;14.88;;
10082;SDS011;5080;48.528;8.078;2024-03-22T02:38:44;15.38;;;14.82;;
10082;SDS011;5080;48.528;8.078;2024-03-22T02:41:12;15.52;;;15.02;;
10082;SDS011;5080;48.528;8.078;2024-03-22T02:43:39;12.82;;;12.43;;
10082;SDS011;5080;48.528;8.078;2024-03-22T02:46:05;13.68;;;13.18;;
10082;SDS011;5080;48.528;8.078;2024-03-22T02:48:31;13.77;;;13.27;;
10082;SDS011;5080;48.528;8.078;2024-03-22T02:50:57;13.88;;;13.38;;
10082;SDS011;5080;48.528;8.078;2024-03-22T02:53:24;13.90;;;13.30;;
10082;SDS011;5080;48.528;8.078;2024-03-22T02:55:50;13.32;;;12.88;;
10082;SDS011;5080;48.528;8.078;2024-03-22T02:58:20;13.88;;;13.38;;
10082;SDS011;5080;48.528;8.078;2024-03-22T03:00:46;14.07;;;13.55;;
10082;SDS011;5080;48.528;8.078;2024-03-22T03:03:13;13.93;;;13.43;;
10082;SDS011;5080;48.528;8.078;2024-03-22T03:05:39;13.70;;;13.20;;
10082;SDS011;5080;48.528;8.078;2024-03-22T03:08:06;13.55;;;13.05;;
10082;SDS011;5080;48.528;8.078;2024-03-22T03:10:32;14.38;;;13.88;;
10082;SDS011;5080;48.528;8.078;2024-03-22T03:12:59;13.75;;;13.25;;
10082;SDS011;5080;48.528;8.078;2024-03-22T03:15:26;13.65;;;13.15;;
10082;SDS011;5080;48.528;8.078;2024-03-22T03:17:52;13.63;;;13.13;;
10082;SDS011;5080;48.528;8.078;2024-03-22T03:20:19;13.70;;;13.20;;
10082;SDS011;5080;48.528;8.078;2024-03-22T03:22:45;14.70;;;14.20;;
10082;SDS011;5080;48.528;8.078;2024-03-22T03:25:12;13.90;;;13.40;;
10082;SDS011;5080;48.528;8.078;2024-03-22T03:27:42;13.30;;;12.80;;
10082;SDS011;5080;48.528;8.078;2024-03-22T03:30:09;14.38;;;13.88;;
10082;SDS011;5080;48.528;8.078;2024-03-22T03:32:37;14.30;;;13.80;;
10082;SDS011;5080;48.528;8.078;2024-03-22T03:35:05;14.75;;;14.25;;
10082;SDS011;5080;48.528;8.078;2024-03-22T03:37:31;13.70;;;13.20;;
10082;SDS011;5080;48.528;8.078;2024-03-22T03:39:58;13.60;;;13.10;;
10082;SDS011;5080;48.528;8.078;2024-03-22T03:42:25;14.17;;;13.67;;
10082;SDS011;5080;48.528;8.078;2024-03-22T03:44:52;13.88;;;13.38;;
10082;SDS011;5080;48.528;8.078;2024-03-22T03:47:17;14.75;;;14.15;;
10082;SDS011;5080;48.528;8.078;2024-03-22T03:49:46;14.43;;;13.93;;
10082;SDS011;5080;48.528;8.078;2024-03-22T03:52:12;12.90;;;12.43;;
10082;SDS011;5080;48.528;8.078;2024-03-22T03:54:39;14.15;;;13.65;;
10082;SDS011;5080;48.528;8.078;2024-03-22T03:57:05;13.63;;;13.13;;
10082;SDS011;5080;48.528;8.078;2024-03-22T03:59:32;13.32;;;12.82;;
10082;SDS011;5080;48.528;8.078;2024-03-22T04:01:58;13.40;;;12.90;;
10082;SDS011;5080;48.528;8.078;2024-03-22T04:04:25;14.45;;;13.95;;
10082;SDS011;5080;48.528;8.078;2024-03-22T04:06:52;13.88;;;13.38;;
10082;SDS011;5080;48.528;8.078;2024-03-22T04:09:19;13.57;;;13.07;;
10082;SDS011;5080;48.528;8.078;2024-03-22T04:11:45;13.75;;;13.25;;
10082;SDS011;5080;48.528;8.078;2024-03-22T04:14:12;13.70;;;13.20;;
10082;SDS011;5080;48.528;8.078;2024-03-22T04:16:38;13.77;;;13.27;;
10082;SDS011;5080;48.528;8.078;2024-03-22T04:19:05;13.77;;;13.27;;
10082;SDS011;5080;48.528;8.078;2024-03-22T04:21:30;14.77;;;14.18;;
10082;SDS011;5080;48.528;8.078;2024-03-22T04:23:58;14.82;;;14.32;;
10082;SDS011;5080;48.528;8.078;2024-03-22T04:26:25;14.38;;;13.88;;
10082;SDS011;5080;48.528;8.078;2024-03-22T04:28:52;14.45;;;13.85;;
10082;SDS011;5080;48.528;8.078;2024-03-22T04:31:21;13.98;;;13.48;;
10082;SDS011;5080;48.528;8.078;2024-03-22T04:33:46;14.23;;;13.73;;
10082;SDS011;5080;48.528;8.078;2024-03-22T04:36:13;13.25;;;12.75;;
10082;SDS011;5080;48.528;8.078;2024-03-22T04:38:40;13.57;;;13.07;;
10082;SDS011;5080;48.528;8.078;2024-03-22T04:41:08;14.50;;;13.93;;
10082;SDS011;5080;48.528;8.078;2024-03-22T04:43:35;14.15;;;13.65;;
10082;SDS011;5080;48.528;8.078;2024-03-22T04:46:01;13.77;;;13.27;;
10082;SDS011;5080;48.528;8.078;2024-03-22T04:48:29;14.38;;;13.88;;
10082;SDS011;5080;48.528;8.078;2024-03-22T04:50:55;12.75;;;12.35;;
10082;SDS011;5080;48.528;8.078;2024-03-22T04:53:22;13.43;;;12.93;;
10082;SDS011;5080;48.528;8.078;2024-03-22T04:55:48;15.38;;;14.80;;
10082;SDS011;5080;48.528;8.078;2024-03-22T04:58:17;14.33;;;13.83;;
10082;SDS011;5080;48.528;8.078;2024-03-22T05:00:43;13.32;;;12.85;;
10082;SDS011;5080;48.528;8.078;2024-03-22T05:03:10;14.45;;;13.95;;
10082;SDS011;5080;48.528;8.078;2024-03-22T05:05:37;13.85;;;13.35;;
10082;SDS011;5080;48.528;8.078;2024-03-22T05:08:04;14.70;;;14.20;;
10082;SDS011;5080;48.528;8.078;2024-03-22T05:10:31;15.43;;;14.90;;
10082;SDS011;5080;48.528;8.078;2024-03-22T05:12:57;13.88;;;13.38;;
10082;SDS011;5080;48.528;8.078;2024-03-22T05:15:25;13.15;;;12.68;;
10082;SDS011;5080;48.528;8.078;2024-03-22T05:17:55;13.18;;;12.68;;
10082;SDS011;5080;48.528;8.078;2024-03-22T05:20:22;14.73;;;14.23;;
10082;SDS011;5080;48.528;8.078;2024-03-22T05:22:50;14.00;;;13.50;;
10082;SDS011;5080;48.528;8.078;2024-03-22T05:25:17;14.00;;;13.50;;
10082;SDS011;5080;48.528;8.078;2024-03-22T05:27:44;16.03;;;15.43;;
10082;SDS011;5080;48.528;8.078;2024-03-22T05:30:10;16.35;;;15.75;;
10082;SDS011;5080;48.528;8.078;2024-03-22T05:32:39;14.43;;;13.93;;
10082;SDS011;5080;48.528;8.078;2024-03-22T05:35:05;14.05;;;13.55;;
10082;SDS011;5080;48.528;8.078;2024-03-22T05:37:32;16.42;;;15.82;;
10082;SDS011;5080;48.528;8.078;2024-03-22T05:39:59;13.55;;;13.05;;
10082;SDS011;5080;48.528;8.078;2024-03-22T05:42:26;13.40;;;12.90;;
10082;SDS011;5080;48.528;8.078;2024-03-22T05:44:52;13.03;;;12.53;;
10082;SDS011;5080;48.528;8.078;2024-03-22T05:47:19;12.80;;;12.37;;
10082;SDS011;5080;48.528;8.078;2024-03-22T05:49:46;13.40;;;12.93;;
10082;SDS011;5080;48.528;8.078;2024-03-22T05:52:13;13.57;;;13.07;;
10082;SDS011;5080;48.528;8.078;2024-03-22T05:54:39;13.20;;;12.77;;
10082;SDS011;5080;48.528;8.078;2024-03-22T05:57:07;13.73;;;13.23;;
10082;SDS011;5080;48.528;8.078;2024-03-22T05:59:32;13.13;;;12.65;;
10082;SDS011;5080;48.528;8.078;2024-03-22T06:01:59;13.32;;;12.85;;
10082;SDS011;5080;48.528;8.078;2024-03-22T06:04:25;13.52;;;13.02;;
10082;SDS011;5080;48.528;8.078;2024-03-22T06:06:55;13.35;;;12.85;;
10082;SDS011;5080;48.528;8.078;2024-03-22T06:09:20;14.05;;;13.55;;
10082;SDS011;5080;48.528;8.078;2024-03-22T06:11:59;13.70;;;13.20;;
10082;SDS011;5080;48.528;8.078;2024-03-22T06:14:25;13.98;;;13.48;;
10082;SDS011;5080;48.528;8.078;2024-03-22T06:16:52;12.25;;;11.85;;
10082;SDS011;5080;48.528;8.078;2024-03-22T06:19:18;14.18;;;13.68;;
10082;SDS011;5080;48.528;8.078;2024-03-22T06:21:46;14.30;;;13.80;;
10082;SDS011;5080;48.528;8.078;2024-03-22T06:24:13;13.55;;;13.05;;
10082;SDS011;5080;48.528;8.078;2024-03-22T06:26:40;14.98;;;14.45;;
10082;SDS011;5080;48.528;8.078;2024-03-22T06:29:05;13.98;;;13.48;;
10082;SDS011;5080;48.528;8.078;2024-03-22T06:31:33;14.55;;;14.05;;
10082;SDS011;5080;48.528;8.078;2024-03-22T06:33:58;17.10;;;16.45;;
10082;SDS011;5080;48.528;8.078;2024-03-22T06:36:27;13.80;;;13.30;;
10082;SDS011;5080;48.528;8.078;2024-03-22T06:38:53;14.03;;;13.43;;
10082;SDS011;5080;48.528;8.078;2024-03-22T06:41:21;13.82;;;13.32;;
10082;SDS011;5080;48.528;8.078;2024-03-22T06:43:47;13.10;;;12.60;;
10082;SDS011;5080;48.528;8.078;2024-03-22T06:46:14;13.35;;;12.85;;
10082;SDS011;5080;48.528;8.078;2024-03-22T06:48:39;12.70;;;12.30;;
10082;SDS011;5080;48.528;8.078;2024-03-22T06:51:06;12.93;;;12.52;;
10082;SDS011;5080;48.528;8.078;2024-03-22T06:53:32;12.95;;;12.55;;
10082;SDS011;5080;48.528;8.078;2024-03-22T06:55:58;12.57;;;12.07;;
10082;SDS011;5080;48.528;8.078;2024-03-22T06:58:25;12.77;;;12.35;;
10082;SDS011;5080;48.528;8.078;2024-03-22T07:00:53;12.50;;;12.00;;
10082;SDS011;5080;48.528;8.078;2024-03-22T07:03:19;12.47;;;11.97;;
10082;SDS011;5080;48.528;8.078;2024-03-22T07:05:46;12.43;;;12.02;;
10082;SDS011;5080;48.528;8.078;2024-03-22T07:08:12;12.60;;;12.10;;
10082;SDS011;5080;48.528;8.078;2024-03-22T07:10:39;11.90;;;11.50;;
10082;SDS011;5080;48.528;8.078;2024-03-22T07:13:06;11.63;;;11.23;;
10082;SDS011;5080;48.528;8.078;2024-03-22T07:15:34;12.20;;;11.70;;
10082;SDS011;5080;48.528;8.078;2024-03-22T07:18:00;12.73;;;12.20;;
10082;SDS011;5080;48.528;8.078;2024-03-22T07:20:27;11.93;;;11.53;;
10082;SDS011;5080;48.528;8.078;2024-03-22T07:22:54;12.05;;;11.60;;
10082;SDS011;5080;48.528;8.078;2024-03-22T07:25:19;13.48;;;12.77;;
10082;SDS011;5080;48.528;8.078;2024-03-22T07:27:46;11.98;;;11.57;;
10082;SDS011;5080;48.528;8.078;2024-03-22T07:30:14;11.90;;;11.50;;
10082;SDS011;5080;48.528;8.078;2024-03-22T07:32:42;11.17;;;10.77;;
10082;SDS011;5080;48.528;8.078;2024-03-22T07:35:09;12.60;;;12.10;;
10082;SDS011;5080;48.528;8.078;2024-03-22T07:37:35;11.68;;;11.23;;
10082;SDS011;5080;48.528;8.078;2024-03-22T07:40:02;11.82;;;11.43;;
10082;SDS011;5080;48.528;8.078;2024-03-22T07:42:30;12.27;;;11.87;;
10082;SDS011;5080;48.528;8.078;2024-03-22T07:44:56;12.70;;;12.27;;
10082;SDS011;5080;48.528;8.078;2024-03-22T07:47:22;14.00;;;13.50;;
10082;SDS011;5080;48.528;8.078;2024-03-22T07:49:50;14.52;;;14.02;;
10082;SDS011;5080;48.528;8.078;2024-03-22T07:52:17;14.05;;;13.55;;
10082;SDS011;5080;48.528;8.078;2024-03-22T07:54:43;13.00;;;12.52;;
10082;SDS011;5080;48.528;8.078;2024-03-22T07:57:09;13.05;;;12.65;;
10082;SDS011;5080;48.528;8.078;2024-03-22T07:59:35;11.98;;;11.57;;
10082;SDS011;5080;48.528;8.078;2024-03-22T08:02:02;12.15;;;11.75;;
10082;SDS011;5080;48.528;8.078;2024-03-22T08:04:28;12.18;;;11.77;;
10082;SDS011;5080;48.528;8.078;2024-03-22T08:06:56;11.48;;;11.07;;
10082;SDS011;5080;48.528;8.078;2024-03-22T08:09:22;11.30;;;10.90;;
10082;SDS011;5080;48.528;8.078;2024-03-22T08:11:49;11.52;;;11.13;;
10082;SDS011;5080;48.528;8.078;2024-03-22T08:14:15;10.50;;;10.10;;
10082;SDS011;5080;48.528;8.078;2024-03-22T08:16:42;10.73;;;10.32;;
10082;SDS011;5080;48.528;8.078;2024-03-22T08:19:07;11.02;;;10.63;;
10082;SDS011;5080;48.528;8.078;2024-03-22T08:21:34;10.60;;;10.20;;
10082;SDS011;5080;48.528;8.078;2024-03-22T08:24:03;11.18;;;10.77;;
10082;SDS011;5080;48.528;8.078;2024-03-22T08:26:30;11.63;;;11.23;;
10082;SDS011;5080;48.528;8.078;2024-03-22T08:28:56;12.15;;;11.75;;
10082;SDS011;5080;48.528;8.078;2024-03-22T08:31:22;12.55;;;12.13;;
10082;SDS011;5080;48.528;8.078;2024-03-22T08:33:50;13.52;;;13.02;;
10082;SDS011;5080;48.528;8.078;2024-03-22T08:36:17;12.48;;;12.07;;
10082;SDS011;5080;48.528;8.078;2024-03-22T08:38:43;12.05;;;11.65;;
10082;SDS011;5080;48.528;8.078;2024-03-22T08:41:11;12.63;;;12.23;;
10082;SDS011;5080;48.528;8.078;2024-03-22T08:43:37;14.02;;;13.52;;
10082;SDS011;5080;48.528;8.078;2024-03-22T08:46:03;13.77;;;13.27;;
10082;SDS011;5080;48.528;8.078;2024-03-22T08:48:29;15.30;;;14.80;;
10082;SDS011;5080;48.528;8.078;2024-03-22T08:50:56;17.25;;;16.63;;
10082;SDS011;5080;48.528;8.078;2024-03-22T08:53:22;15.10;;;14.57;;
10082;SDS011;5080;48.528;8.078;2024-03-22T08:55:49;14.30;;;13.80;;
10082;SDS011;5080;48.528;8.078;2024-03-22T08:58:17;14.60;;;14.00;;
10082;SDS011;5080;48.528;8.078;2024-03-22T09:00:43;14.23;;;13.73;;
10082;SDS011;5080;48.528;8.078;2024-03-22T09:03:09;15.25;;;14.73;;
10082;SDS011;5080;48.528;8.078;2024-03-22T09:05:36;14.60;;;14.10;;
10082;SDS011;5080;48.528;8.078;2024-03-22T09:08:02;14.43;;;13.93;;
10082;SDS011;5080;48.528;8.078;2024-03-22T09:10:29;14.00;;;13.50;;
10082;SDS011;5080;48.528;8.078;2024-03-22T09:12:55;13.82;;;13.32;;
10082;SDS011;5080;48.528;8.078;2024-03-22T09:15:23;13.88;;;13.38;;
10082;SDS011;5080;48.528;8.078;2024-03-22T09:17:49;14.60;;;14.10;;
10082;SDS011;5080;48.528;8.078;2024-03-22T09:20:17;15.07;;;14.57;;
10082;SDS011;5080;48.528;8.078;2024-03-22T09:22:43;18.77;;;18.10;;
10082;SDS011;5080;48.528;8.078;2024-03-22T09:25:10;19.48;;;18.77;;
10082;SDS011;5080;48.528;8.078;2024-03-22T09:27:35;19.50;;;18.80;;
10082;SDS011;5080;48.528;8.078;2024-03-22T09:30:03;18.85;;;18.15;;
10082;SDS011;5080;48.528;8.078;2024-03-22T09:32:30;19.35;;;18.65;;
10082;SDS011;5080;48.528;8.078;2024-03-22T09:34:57;19.73;;;19.02;;
10082;SDS011;5080;48.528;8.078;2024-03-22T09:37:23;18.65;;;17.95;;
10082;SDS011;5080;48.528;8.078;2024-03-22T09:39:50;19.40;;;18.65;;
10082;SDS011;5080;48.528;8.078;2024-03-22T09:42:16;20.67;;;19.98;;
10082;SDS011;5080;48.528;8.078;2024-03-22T09:44:44;17.25;;;16.60;;
10082;SDS011;5080;48.528;8.078;2024-03-22T09:47:13;17.70;;;17.08;;
10082;SDS011;5080;48.528;8.078;2024-03-22T09:49:43;18.70;;;18.00;;
10082;SDS011;5080;48.528;8.078;2024-03-22T09:52:11;17.80;;;17.20;;
10082;SDS011;5080;48.528;8.078;2024-03-22T09:54:40;19.20;;;18.50;;
10082;SDS011;5080;48.528;8.078;2024-03-22T09:57:07;18.42;;;17.73;;
10082;SDS011;5080;48.528;8.078;2024-03-22T09:59:37;19.35;;;18.65;;
10082;SDS011;5080;48.528;8.078;2024-03-22T10:02:04;17.65;;;16.95;;
10082;SDS011;5080;48.528;8.078;2024-03-22T10:04:31;16.40;;;15.80;;
10082;SDS011;5080;48.528;8.078;2024-03-22T10:06:58;16.75;;;16.15;;
10082;SDS011;5080;48.528;8.078;2024-03-22T10:09:28;16.10;;;15.50;;
10082;SDS011;5080;48.528;8.078;2024-03-22T10:11:55;16.77;;;16.17;;
10082;SDS011;5080;48.528;8.078;2024-03-22T10:14:21;16.25;;;15.65;;
10082;SDS011;5080;48.528;8.078;2024-03-22T10:16:50;17.05;;;16.45;;
10082;SDS011;5080;48.528;8.078;2024-03-22T10:19:19;16.67;;;16.08;;
10082;SDS011;5080;48.528;8.078;2024-03-22T10:21:45;17.95;;;17.33;;
10082;SDS011;5080;48.528;8.078;2024-03-22T10:24:13;18.75;;;18.08;;
10082;SDS011;5080;48.528;8.078;2024-03-22T10:26:39;17.20;;;16.60;;
10082;SDS011;5080;48.528;8.078;2024-03-22T10:29:06;17.63;;;17.02;;
10082;SDS011;5080;48.528;8.078;2024-03-22T10:31:34;16.83;;;16.23;;
10082;SDS011;5080;48.528;8.078;2024-03-22T10:34:02;15.68;;;15.10;;
10082;SDS011;5080;48.528;8.078;2024-03-22T10:36:29;15.10;;;14.60;;
10082;SDS011;5080;48.528;8.078;2024-03-22T10:38:56;16.35;;;15.77;;
10082;SDS011;5080;48.528;8.078;2024-03-22T10:41:24;17.55;;;16.95;;
10082;SDS011;5080;48.528;8.078;2024-03-22T10:43:51;17.83;;;17.20;;
10082;SDS011;5080;48.528;8.078;2024-03-22T10:46:18;17.20;;;16.60;;
10082;SDS011;5080;48.528;8.078;2024-03-22T10:48:46;17.45;;;16.85;;
10082;SDS011;5080;48.528;8.078;2024-03-22T10:51:12;18.17;;;17.58;;
10082;SDS011;5080;48.528;8.078;2024-03-22T10:53:41;17.55;;;16.95;;
10082;SDS011;5080;48.528;8.078;2024-03-22T10:56:07;17.55;;;16.95;;
10082;SDS011;5080;48.528;8.078;2024-03-22T10:58:40;18.60;;;17.90;;
10082;SDS011;5080;48.528;8.078;2024-03-22T11:01:06;16.60;;;16.00;;
10082;SDS011;5080;48.528;8.078;2024-03-22T11:03:47;17.20;;;16.60;;
10082;SDS011;5080;48.528;8.078;2024-03-22T11:06:12;17.25;;;16.65;;
10082;SDS011;5080;48.528;8.078;2024-03-22T11:08:39;17.77;;;17.17;;
10082;SDS011;5080;48.528;8.078;2024-03-22T11:11:09;16.50;;;15.90;;
10082;SDS011;5080;48.528;8.078;2024-03-22T11:13:36;16.00;;;15.50;;
10082;SDS011;5080;48.528;8.078;2024-03-22T11:16:05;16.75;;;16.15;;
10082;SDS011;5080;48.528;8.078;2024-03-22T11:18:35;19.52;;;18.83;;
10082;SDS011;5080;48.528;8.078;2024-03-22T11:21:01;18.70;;;18.10;;
10082;SDS011;5080;48.528;8.078;2024-03-22T11:23:29;17.67;;;17.08;;
10082;SDS011;5080;48.528;8.078;2024-03-22T11:25:54;16.17;;;15.57;;
10082;SDS011;5080;48.528;8.078;2024-03-22T11:28:22;15.48;;;14.88;;
10082;SDS011;5080;48.528;8.078;2024-03-22T11:30:48;18.98;;;18.30;;
10082;SDS011;5080;48.528;8.078;2024-03-22T11:33:16;15.20;;;14.70;;
10082;SDS011;5080;48.528;8.078;2024-03-22T11:35:42;15.75;;;15.25;;
10082;SDS011;5080;48.528;8.078;2024-03-22T11:38:10;15.70;;;15.20;;
10082;SDS011;5080;48.528;8.078;2024-03-22T11:40:36;15.30;;;14.70;;
10082;SDS011;5080;48.528;8.078;2024-03-22T11:43:03;15.00;;;14.50;;
10082;SDS011;5080;48.528;8.078;2024-03-22T11:45:30;15.70;;;15.10;;
10082;SDS011;5080;48.528;8.078;2024-03-22T11:48:01;15.90;;;15.30;;
10082;SDS011;5080;48.528;8.078;2024-03-22T11:50:28;15.82;;;15.32;;
10082;SDS011;5080;48.528;8.078;2024-03-22T11:52:55;16.73;;;16.13;;
10082;SDS011;5080;48.528;8.078;2024-03-22T11:55:21;15.80;;;15.30;;
10082;SDS011;5080;48.528;8.078;2024-03-22T11:57:48;16.17;;;15.57;;
10082;SDS011;5080;48.528;8.078;2024-03-22T12:00:14;15.05;;;14.55;;
10082;SDS011;5080;48.528;8.078;2024-03-22T12:02:43;14.32;;;13.82;;
10082;SDS011;5080;48.528;8.078;2024-03-22T12:05:09;15.23;;;14.68;;
10082;SDS011;5080;48.528;8.078;2024-03-22T12:07:37;14.80;;;14.30;;
10082;SDS011;5080;48.528;8.078;2024-03-22T12:10:05;15.05;;;14.55;;
10082;SDS011;5080;48.528;8.078;2024-03-22T12:12:32;15.18;;;14.68;;
10082;SDS011;5080;48.528;8.078;2024-03-22T12:14:58;14.75;;;14.25;;
10082;SDS011;5080;48.528;8.078;2024-03-22T12:17:25;14.80;;;14.30;;
10082;SDS011;5080;48.528;8.078;2024-03-22T12:19:51;14.77;;;14.27;;
10082;SDS011;5080;48.528;8.078;2024-03-22T12:22:17;14.52;;;14.02;;
10082;SDS011;5080;48.528;8.078;2024-03-22T12:24:44;14.10;;;13.60;;
10082;SDS011;5080;48.528;8.078;2024-03-22T12:27:11;14.40;;;13.90;;
10082;SDS011;5080;48.528;8.078;2024-03-22T12:29:37;15.02;;;14.52;;
10082;SDS011;5080;48.528;8.078;2024-03-22T12:32:04;14.75;;;14.25;;
10082;SDS011;5080;48.528;8.078;2024-03-22T12:34:31;15.88;;;15.32;;
10082;SDS011;5080;48.528;8.078;2024-03-22T12:36:58;16.48;;;15.88;;
10082;SDS011;5080;48.528;8.078;2024-03-22T12:39:24;16.67;;;16.08;;
10082;SDS011;5080;48.528;8.078;2024-03-22T12:41:52;15.50;;;15.00;;
10082;SDS011;5080;48.528;8.078;2024-03-22T12:44:18;16.65;;;16.05;;
10082;SDS011;5080;48.528;8.078;2024-03-22T12:46:46;16.33;;;15.73;;
10082;SDS011;5080;48.528;8.078;2024-03-22T12:49:12;16.67;;;16.08;;
10082;SDS011;5080;48.528;8.078;2024-03-22T12:51:38;16.25;;;15.65;;
10082;SDS011;5080;48.528;8.078;2024-03-22T12:54:04;16.58;;;15.98;;
10082;SDS011;5080;48.528;8.078;2024-03-22T12:56:33;16.80;;;16.20;;
10082;SDS011;5080;48.528;8.078;2024-03-22T12:59:00;14.93;;;14.43;;
10082;SDS011;5080;48.528;8.078;2024-03-22T13:01:27;14.10;;;13.60;;
10082;SDS011;5080;48.528;8.078;2024-03-22T13:03:52;14.95;;;14.45;;
10082;SDS011;5080;48.528;8.078;2024-03-22T13:06:19;16.70;;;16.10;;
10082;SDS011;5080;48.528;8.078;2024-03-22T13:08:45;16.58;;;15.98;;
10082;SDS011;5080;48.528;8.078;2024-03-22T13:11:12;16.95;;;16.35;;
10082;SDS011;5080;48.528;8.078;2024-03-22T13:13:39;17.15;;;16.55;;
10082;SDS011;5080;48.528;8.078;2024-03-22T13:16:07;16.25;;;15.75;;
10082;SDS011;5080;48.528;8.078;2024-03-22T13:18:35;16.42;;;15.82;;
10082;SDS011;5080;48.528;8.078;2024-03-22T13:21:03;16.27;;;15.73;;
10082;SDS011;5080;48.528;8.078;2024-03-22T13:23:30;15.80;;;15.30;;
10082;SDS011;5080;48.528;8.078;2024-03-22T13:25:57;15.18;;;14.68;;
10082;SDS011;5080;48.528;8.078;2024-03-22T13:28:28;15.57;;;15.02;;
10082;SDS011;5080;48.528;8.078;2024-03-22T13:30:59;15.95;;;15.45;;
10082;SDS011;5080;48.528;8.078;2024-03-22T13:33:26;15.52;;;15.02;;
10082;SDS011;5080;48.528;8.078;2024-03-22T13:35:53;16.15;;;15.55;;
10082;SDS011;5080;48.528;8.078;2024-03-22T13:38:18;16.20;;;15.65;;
10082;SDS011;5080;48.528;8.078;2024-03-22T13:40:52;15.77;;;15.27;;
10082;SDS011;5080;48.528;8.078;2024-03-22T13:43:18;16.00;;;15.50;;
10082;SDS011;5080;48.528;8.078;2024-03-22T13:45:45;16.73;;;16.15;;
10082;SDS011;5080;48.528;8.078;2024-03-22T13:48:13;15.60;;;15.10;;
10082;SDS011;5080;48.528;8.078;2024-03-22T13:50:41;15.50;;;15.00;;
10082;SDS011;5080;48.528;8.078;2024-03-22T13:53:06;16.75;;;16.15;;
10082;SDS011;5080;48.528;8.078;2024-03-22T13:55:34;16.58;;;15.98;;
10082;SDS011;5080;48.528;8.078;2024-03-22T13:58:00;15.80;;;15.30;;
10082;SDS011;5080;48.528;8.078;2024-03-22T14:00:27;16.02;;;15.43;;
10082;SDS011;5080;48.528;8.078;2024-03-22T14:02:53;14.98;;;14.48;;
10082;SDS011;5080;48.528;8.078;2024-03-22T14:05:21;15.48;;;14.98;;
10082;SDS011;5080;48.528;8.078;2024-03-22T14:07:50;15.75;;;15.25;;
10082;SDS011;5080;48.528;8.078;2024-03-22T14:10:17;15.55;;;15.05;;
10082;SDS011;5080;48.528;8.078;2024-03-22T14:12:44;15.95;;;15.40;;
10082;SDS011;5080;48.528;8.078;2024-03-22T14:15:11;16.00;;;15.50;;
10082;SDS011;5080;48.528;8.078;2024-03-22T14:17:38;16.23;;;15.68;;
10082;SDS011;5080;48.528;8.078;2024-03-22T14:20:05;15.75;;;15.23;;
10082;SDS011;5080;48.528;8.078;2024-03-22T14:22:36;15.48;;;14.98;;
10082;SDS011;5080;48.528;8.078;2024-03-22T14:25:05;15.55;;;15.05;;
10082;SDS011;5080;48.528;8.078;2024-03-22T14:27:31;15.45;;;14.95;;
10082;SDS011;5080;48.528;8.078;2024-03-22T14:29:58;15.45;;;14.93;;
10082;SDS011;5080;48.528;8.078;2024-03-22T14:32:24;15.68;;;15.15;;